Aviation Digital Data Service (ADDS)

Output produced by METARs form (0745 UTC 19 September 2014)
found at http://www.aviationweather.gov/adds/metars/
 
KDOV 190658Z AUTO 32007KT 10SM CLR 13/12 A3010 RMK AO2 SLP196 T01290120
TAF KDOV 1900/2006 VRB06KT 9999 SCT065 BKN075 QNH3000INS 
     BECMG 1916/1917 08012G18KT 9999 BKN030 QNH3023INS 
     BECMG 1923/1924 09006KT 9999 OVC020 QNH3025INS TX23/1919Z TN13/1910Z